createdAt,value
2023-05-09T00:01:31.444Z,7.00
2023-05-09T00:04:01.089Z,8.10
2023-05-09T00:06:31.509Z,8.43
2023-05-09T00:08:59.219Z,7.93
2023-05-09T00:11:26.409Z,7.80
2023-05-09T00:13:53.018Z,7.50
2023-05-09T00:16:23.379Z,8.65
2023-05-09T00:18:51.186Z,7.68
2023-05-09T00:21:25.289Z,6.82
2023-05-09T00:23:52.329Z,6.22
2023-05-09T00:26:22.352Z,7.00
2023-05-09T00:28:54.283Z,6.30
2023-05-09T00:31:24.230Z,6.78
2023-05-09T00:33:57.312Z,6.85
2023-05-09T00:36:23.990Z,5.75
2023-05-09T00:38:53.108Z,6.60
2023-05-09T00:41:22.255Z,6.32
2023-05-09T00:43:48.902Z,6.30
2023-05-09T00:46:21.688Z,6.85
2023-05-09T00:48:48.441Z,6.38
2023-05-09T00:51:17.734Z,6.93
2023-05-09T00:53:51.364Z,6.87
2023-05-09T00:56:21.203Z,6.57
2023-05-09T00:58:48.460Z,6.75
2023-05-09T01:01:19.886Z,6.60
2023-05-09T01:03:49.720Z,6.95
2023-05-09T01:06:22.365Z,7.10
2023-05-09T01:09:10.359Z,5.55
2023-05-09T01:11:50.381Z,5.97
2023-05-09T01:14:55.235Z,6.47
2023-05-09T01:17:25.755Z,5.97
2023-05-09T01:20:17.902Z,6.50
2023-05-09T01:23:02.508Z,6.10
2023-05-09T01:25:47.691Z,5.88
2023-05-09T01:28:25.390Z,6.30
2023-05-09T01:30:54.315Z,6.30
2023-05-09T01:33:23.652Z,6.30
2023-05-09T01:36:00.818Z,5.95
2023-05-09T01:38:30.759Z,6.00
2023-05-09T01:41:05.170Z,5.70
2023-05-09T01:43:33.832Z,6.13
2023-05-09T01:46:01.445Z,6.07
2023-05-09T01:51:33.684Z,5.28
2023-05-09T01:54:05.584Z,6.07
2023-05-09T01:56:32.908Z,6.60
2023-05-09T01:59:10.340Z,5.65
2023-05-09T02:01:37.162Z,5.82
2023-05-09T02:04:08.486Z,5.35
2023-05-09T02:06:38.476Z,6.28
2023-05-09T02:09:05.491Z,5.55
2023-05-09T02:11:32.421Z,5.40
2023-05-09T02:14:04.500Z,5.45
2023-05-09T02:16:35.555Z,5.47
2023-05-09T02:19:05.956Z,5.30
2023-05-09T02:21:38.645Z,5.07
2023-05-09T02:24:31.573Z,5.32
2023-05-09T02:26:58.409Z,5.18
2023-05-09T02:29:30.410Z,4.97
2023-05-09T02:32:01.616Z,5.50
2023-05-09T02:34:33.482Z,5.18
2023-05-09T02:37:03.840Z,4.90
2023-05-09T02:39:31.288Z,4.97
2023-05-09T02:42:12.573Z,5.03
2023-05-09T02:44:39.218Z,5.20
2023-05-09T02:47:06.798Z,5.40
2023-05-09T02:49:33.919Z,5.22
2023-05-09T02:52:28.375Z,5.47
2023-05-09T02:54:54.939Z,4.30
2023-05-09T02:57:21.807Z,6.57
2023-05-09T02:59:48.690Z,5.55
2023-05-09T03:02:18.035Z,4.82
2023-05-09T03:04:45.370Z,5.38
2023-05-09T03:07:15.690Z,5.40
2023-05-09T03:09:42.501Z,5.53
2023-05-09T03:12:12.540Z,5.07
2023-05-09T03:14:46.306Z,5.80
2023-05-09T03:17:16.612Z,5.30
2023-05-09T03:19:44.511Z,5.22
2023-05-09T03:22:11.186Z,5.63
2023-05-09T03:24:44.062Z,5.57
2023-05-09T03:27:14.793Z,5.78
2023-05-09T03:29:42.001Z,4.88
2023-05-09T03:32:17.721Z,4.95
2023-05-09T03:34:46.973Z,5.43
2023-05-09T03:37:13.897Z,4.97
2023-05-09T03:39:44.938Z,5.13
2023-05-09T03:42:39.684Z,5.25
2023-05-09T03:45:09.293Z,5.68
2023-05-09T03:47:35.977Z,5.35
2023-05-09T03:50:03.503Z,5.38
2023-05-09T03:52:30.582Z,4.97
2023-05-09T03:54:57.592Z,5.63
2023-05-09T03:57:24.476Z,5.57
2023-05-09T04:02:51.901Z,4.60
2023-05-09T04:06:22.806Z,5.22
2023-05-09T04:08:53.274Z,5.63
2023-05-09T04:11:29.913Z,4.90
2023-05-09T04:16:37.068Z,5.57
2023-05-09T04:19:06.561Z,5.72
2023-05-09T04:21:33.953Z,4.68
2023-05-09T04:24:31.929Z,5.13
2023-05-09T04:27:11.739Z,4.88
2023-05-09T04:29:41.548Z,5.50
2023-05-09T04:32:13.576Z,4.95
2023-05-09T04:34:41.791Z,4.82
2023-05-09T04:37:20.404Z,4.60
2023-05-09T04:39:49.360Z,4.82
2023-05-09T04:42:29.115Z,5.25
2023-05-09T04:44:57.324Z,4.97
2023-05-09T04:47:28.398Z,4.97
2023-05-09T04:50:21.984Z,5.38
2023-05-09T04:52:50.127Z,4.63
2023-05-09T04:56:09.896Z,4.90
2023-05-09T04:59:29.723Z,5.53
2023-05-09T05:05:41.974Z,5.20
2023-05-09T05:08:10.898Z,4.90
2023-05-09T05:10:46.787Z,5.80
2023-05-09T05:13:16.805Z,5.55
2023-05-09T05:16:37.874Z,6.05
2023-05-09T05:19:10.945Z,5.60
2023-05-09T05:21:42.807Z,5.53
2023-05-09T05:24:10.413Z,5.28
2023-05-09T05:26:40.197Z,5.55
2023-05-09T05:29:10.487Z,5.30
2023-05-09T05:31:37.364Z,5.75
2023-05-09T05:34:11.054Z,6.10
2023-05-09T05:36:44.035Z,4.97
2023-05-09T05:39:16.498Z,5.43
2023-05-09T05:41:52.198Z,5.85
2023-05-09T05:45:11.052Z,5.55
2023-05-09T05:47:43.550Z,5.10
2023-05-09T05:50:15.388Z,5.63
2023-05-09T05:52:46.715Z,5.38
2023-05-09T05:55:16.968Z,6.28
2023-05-09T05:58:13.045Z,5.47
2023-05-09T06:00:55.886Z,5.30
2023-05-09T06:03:22.994Z,5.95
2023-05-09T06:06:25.912Z,5.15
2023-05-09T06:08:56.674Z,6.07
2023-05-09T06:11:28.533Z,5.32
2023-05-09T06:13:58.609Z,5.60
2023-05-09T06:16:28.855Z,5.40
2023-05-09T06:19:00.146Z,5.22
2023-05-09T06:21:53.429Z,5.82
2023-05-09T06:24:34.412Z,5.70
2023-05-09T06:27:33.142Z,5.93
2023-05-09T06:33:08.954Z,5.95
2023-05-09T06:44:59.314Z,7.07
2023-05-09T06:47:30.631Z,6.90
2023-05-09T06:49:57.461Z,7.05
2023-05-09T06:52:25.691Z,6.93
2023-05-09T06:54:55.824Z,7.00
2023-05-09T06:57:26.900Z,8.85
2023-05-09T06:59:57.785Z,8.93
2023-05-09T07:02:25.831Z,17.52
2023-05-09T07:05:47.000Z,8.63
2023-05-09T07:08:41.383Z,9.13
2023-05-09T07:11:17.588Z,8.57
2023-05-09T07:13:48.976Z,8.35
2023-05-09T07:16:17.726Z,9.80
2023-05-09T07:18:47.532Z,8.38
2023-05-09T07:21:20.065Z,8.73
2023-05-09T07:24:14.744Z,8.57
2023-05-09T07:26:45.538Z,8.43
2023-05-09T07:29:12.259Z,9.63
2023-05-09T07:31:41.741Z,10.48
2023-05-09T07:34:40.332Z,9.20
2023-05-09T07:37:11.235Z,9.38
2023-05-09T07:39:46.721Z,9.75
2023-05-09T07:42:18.780Z,9.45
2023-05-09T07:44:51.856Z,11.52
2023-05-09T07:47:18.886Z,10.13
2023-05-09T07:49:50.305Z,11.55
2023-05-09T07:52:33.330Z,10.00
2023-05-09T07:55:01.052Z,11.18
2023-05-09T07:57:33.981Z,9.65
2023-05-09T08:00:05.653Z,10.15
2023-05-09T08:02:55.674Z,10.50
2023-05-09T08:05:29.524Z,9.50
2023-05-09T08:08:00.830Z,9.32
2023-05-09T08:10:30.211Z,10.82
2023-05-09T08:13:27.651Z,11.75
2023-05-09T08:15:55.351Z,11.13
2023-05-09T08:18:24.483Z,10.07
2023-05-09T08:20:52.424Z,10.32
2023-05-09T08:23:22.679Z,10.18
2023-05-09T08:25:54.080Z,9.55
2023-05-09T08:28:50.368Z,9.33
2023-05-09T08:31:21.705Z,9.02
2023-05-09T08:34:43.265Z,8.57
2023-05-09T08:37:41.697Z,8.20
2023-05-09T08:40:09.925Z,8.40
2023-05-09T08:42:39.367Z,8.40
2023-05-09T08:57:00.827Z,7.05
2023-05-09T09:02:23.883Z,8.23
2023-05-09T09:13:54.921Z,11.30
2023-05-09T09:26:55.440Z,7.45
2023-05-09T09:29:27.977Z,5.70
2023-05-09T09:31:55.854Z,7.25
2023-05-09T09:35:17.141Z,6.38
2023-05-09T09:37:47.815Z,6.93
2023-05-09T09:40:18.339Z,7.90
2023-05-09T09:43:37.831Z,9.85
2023-05-09T09:46:58.187Z,9.07
2023-05-09T09:49:30.967Z,9.18
2023-05-09T09:52:00.390Z,8.75
2023-05-09T09:54:38.137Z,7.78
2023-05-09T10:00:01.337Z,8.77
2023-05-09T10:02:32.517Z,9.25
2023-05-09T10:05:11.247Z,8.60
2023-05-09T10:08:08.766Z,8.90
2023-05-09T10:10:37.557Z,7.78
2023-05-09T10:13:07.239Z,7.40
2023-05-09T10:15:49.383Z,8.45
2023-05-09T10:18:26.368Z,8.82
2023-05-09T10:21:45.828Z,8.45
2023-05-09T10:24:27.117Z,8.40
2023-05-09T10:27:06.255Z,9.05
2023-05-09T10:29:55.183Z,7.50
2023-05-09T10:32:58.368Z,8.40
2023-05-09T10:36:19.483Z,8.10
2023-05-09T10:39:39.295Z,8.48
2023-05-09T10:42:38.121Z,8.32
2023-05-09T10:45:11.789Z,10.82
2023-05-09T10:48:33.133Z,12.73
2023-05-09T10:51:29.029Z,8.95
2023-05-09T10:53:57.279Z,7.50
2023-05-09T10:56:32.497Z,6.97
2023-05-09T10:59:05.439Z,7.35
2023-05-09T11:01:39.414Z,8.23
2023-05-09T11:04:19.427Z,9.57
2023-05-09T11:06:52.143Z,9.25
2023-05-09T11:09:38.264Z,8.75
2023-05-09T11:12:57.952Z,8.25
2023-05-09T11:16:02.758Z,9.00
2023-05-09T11:18:33.915Z,9.98
2023-05-09T11:21:09.095Z,9.32
2023-05-09T11:23:38.280Z,7.75
2023-05-09T11:26:34.634Z,6.40
2023-05-09T11:29:07.849Z,7.18
2023-05-09T11:31:58.251Z,5.97
2023-05-09T11:34:30.991Z,5.70
2023-05-09T11:37:12.845Z,6.13
2023-05-09T11:40:04.146Z,4.55
2023-05-09T11:42:35.575Z,4.55
2023-05-09T11:45:07.096Z,5.80
2023-05-09T11:48:03.399Z,5.40
2023-05-09T11:50:33.342Z,5.85
2023-05-09T11:53:04.091Z,4.05
2023-05-09T11:55:37.377Z,5.50
2023-05-09T11:58:57.418Z,4.97
2023-05-09T12:01:31.222Z,4.28
2023-05-09T12:06:29.729Z,3.47
2023-05-09T12:09:03.654Z,4.00
2023-05-09T12:11:31.572Z,3.08
2023-05-09T12:13:58.466Z,4.00
2023-05-09T12:16:26.495Z,3.95
2023-05-09T12:19:46.469Z,2.83
2023-05-09T12:22:19.384Z,3.90
2023-05-09T12:24:49.236Z,5.00
2023-05-09T12:28:07.630Z,5.00
2023-05-09T12:30:39.206Z,3.58
2023-05-09T12:33:09.971Z,3.78
2023-05-09T12:35:39.009Z,4.40
2023-05-09T12:38:07.053Z,3.92
2023-05-09T12:41:10.720Z,3.33
2023-05-09T12:43:52.724Z,5.18
2023-05-09T12:46:25.777Z,3.97
2023-05-09T12:49:36.295Z,3.95
2023-05-09T12:52:05.104Z,3.63
2023-05-09T12:54:33.156Z,3.88
2023-05-09T12:57:03.646Z,3.70
2023-05-09T13:03:38.851Z,2.90
2023-05-09T13:06:20.967Z,3.38
2023-05-09T13:13:03.473Z,2.85
2023-05-09T13:15:33.014Z,3.08
2023-05-09T13:18:28.786Z,3.30
2023-05-09T13:20:56.770Z,4.15
2023-05-09T13:24:15.465Z,4.03
2023-05-09T13:27:10.339Z,4.75
2023-05-09T13:29:41.140Z,5.90
2023-05-09T13:33:09.314Z,5.85
2023-05-09T13:36:16.195Z,5.90
2023-05-09T13:38:45.024Z,5.63
2023-05-09T13:41:21.078Z,4.93
2023-05-09T13:43:49.293Z,4.15
2023-05-09T13:47:08.234Z,5.10
2023-05-09T13:50:40.442Z,6.53
2023-05-09T13:53:38.046Z,6.60
2023-05-09T13:56:08.955Z,6.65
2023-05-09T14:01:35.700Z,5.60
2023-05-09T14:04:04.848Z,5.65
2023-05-09T14:06:37.426Z,7.03
2023-05-09T14:09:08.427Z,5.97
2023-05-09T14:12:32.996Z,6.18
2023-05-09T14:15:03.907Z,6.50
2023-05-09T14:17:33.417Z,5.60
2023-05-09T14:20:07.551Z,5.97
2023-05-09T14:22:37.804Z,5.70
2023-05-09T14:25:56.591Z,5.05
2023-05-09T14:28:32.005Z,5.07
2023-05-09T14:30:58.829Z,4.97
2023-05-09T14:33:30.377Z,5.65
2023-05-09T14:36:02.061Z,5.20
2023-05-09T14:38:34.466Z,5.03
2023-05-09T14:41:57.656Z,4.75
2023-05-09T14:44:28.285Z,4.55
2023-05-09T14:47:04.152Z,4.32
2023-05-09T14:50:22.902Z,4.47
2023-05-09T14:52:53.279Z,4.13
2023-05-09T14:55:26.980Z,4.80
2023-05-09T14:58:04.007Z,4.25
2023-05-09T15:00:35.360Z,4.35
2023-05-09T15:03:27.642Z,4.82
2023-05-09T15:05:54.607Z,4.63
2023-05-09T15:08:21.351Z,4.53
2023-05-09T15:10:50.110Z,4.85
2023-05-09T15:14:08.937Z,5.10
2023-05-09T15:16:39.644Z,4.50
2023-05-09T15:19:07.994Z,3.92
2023-05-09T15:21:36.408Z,3.97
2023-05-09T15:24:56.942Z,4.28
2023-05-09T15:27:26.253Z,4.18
2023-05-09T15:30:22.360Z,5.07
2023-05-09T15:32:56.766Z,4.13
2023-05-09T15:35:59.249Z,4.05
2023-05-09T15:38:27.135Z,3.83
2023-05-09T15:43:55.449Z,3.40
2023-05-09T15:46:22.959Z,3.50
2023-05-09T15:49:18.272Z,3.50
2023-05-09T15:51:46.492Z,4.13
2023-05-09T15:55:04.074Z,3.97
2023-05-09T15:57:31.796Z,3.65
2023-05-09T16:00:06.281Z,3.53
2023-05-09T16:03:12.298Z,3.85
2023-05-09T16:05:43.083Z,4.20
2023-05-09T16:08:13.760Z,3.15
2023-05-09T16:10:48.163Z,3.65
2023-05-09T16:13:19.694Z,3.53
2023-05-09T16:15:52.063Z,3.67
2023-05-09T16:18:20.505Z,3.40
2023-05-09T16:20:52.777Z,3.60
2023-05-09T16:25:52.398Z,3.85
2023-05-09T16:28:23.200Z,3.90
2023-05-09T16:30:51.609Z,4.28
2023-05-09T16:33:18.387Z,3.63
2023-05-09T16:35:52.697Z,4.40
2023-05-09T16:38:20.621Z,3.67
2023-05-09T16:40:50.560Z,3.97
2023-05-09T16:43:19.833Z,3.80
2023-05-09T16:46:44.468Z,3.60
2023-05-09T16:49:15.627Z,3.90
2023-05-09T16:51:45.602Z,3.72
2023-05-09T16:54:12.463Z,3.85
2023-05-09T16:56:39.298Z,4.30
2023-05-09T16:59:10.144Z,4.45
2023-05-09T17:02:29.020Z,4.18
2023-05-09T17:04:59.467Z,4.38
2023-05-09T17:07:27.499Z,5.80
2023-05-09T17:09:55.573Z,5.10
2023-05-09T17:12:25.979Z,4.93
2023-05-09T17:16:10.591Z,4.88
2023-05-09T17:19:34.819Z,5.03
2023-05-09T17:22:08.563Z,4.35
2023-05-09T17:24:36.390Z,10.75
2023-05-09T17:27:34.745Z,5.30
2023-05-09T17:30:03.262Z,4.63
2023-05-09T17:32:34.609Z,5.37
2023-05-09T17:35:05.682Z,4.70
2023-05-09T17:38:01.219Z,4.30
2023-05-09T17:40:29.186Z,3.85
2023-05-09T17:42:57.595Z,3.38
2023-05-09T17:45:26.317Z,3.67
2023-05-09T17:47:56.860Z,2.92
2023-05-09T17:50:26.286Z,2.92
2023-05-09T17:52:57.051Z,2.65
2023-05-09T17:55:26.882Z,2.58
2023-05-09T17:58:23.181Z,2.20
2023-05-09T18:00:54.528Z,2.42
2023-05-09T18:03:24.172Z,2.13
2023-05-09T18:05:51.119Z,2.40
2023-05-09T18:08:22.928Z,2.42
2023-05-09T18:10:55.777Z,2.28
2023-05-09T18:13:25.443Z,2.22
2023-05-09T18:15:55.062Z,2.20
2023-05-09T18:18:32.018Z,2.22
2023-05-09T18:21:01.702Z,1.95
2023-05-09T18:23:29.755Z,2.45
2023-05-09T18:25:59.680Z,2.15
2023-05-09T18:28:26.802Z,2.30
2023-05-09T18:30:54.753Z,1.95
2023-05-09T18:33:28.083Z,2.42
2023-05-09T18:35:55.378Z,2.47
2023-05-09T18:38:26.554Z,1.98
2023-05-09T18:40:56.241Z,1.85
2023-05-09T18:43:23.170Z,1.70
2023-05-09T18:45:51.285Z,2.05
2023-05-09T18:48:18.140Z,1.70
2023-05-09T18:50:45.286Z,2.03
2023-05-09T18:53:12.232Z,1.80
2023-05-09T18:55:39.598Z,2.13
2023-05-09T18:58:09.827Z,1.80
2023-05-09T19:00:38.878Z,1.70
2023-05-09T19:03:12.003Z,1.80
2023-05-09T19:05:42.133Z,1.88
2023-05-09T19:08:15.897Z,2.35
2023-05-09T19:10:44.128Z,2.20
2023-05-09T19:13:49.294Z,1.85
2023-05-09T19:16:25.842Z,1.92
2023-05-09T19:18:59.234Z,1.98
2023-05-09T19:21:29.403Z,2.38
2023-05-09T19:24:50.813Z,2.47
2023-05-09T19:36:00.548Z,2.78
2023-05-09T19:41:55.265Z,2.10
2023-05-09T19:44:25.658Z,2.50
2023-05-09T19:46:57.768Z,2.60
2023-05-09T19:49:33.734Z,2.75
2023-05-09T19:52:04.263Z,2.55
2023-05-09T19:54:31.978Z,2.45
2023-05-09T19:57:50.509Z,2.90
2023-05-09T20:00:19.233Z,2.78
2023-05-09T20:02:47.659Z,2.72
2023-05-09T20:05:16.407Z,2.95
2023-05-09T20:07:46.526Z,2.55
2023-05-09T20:10:15.603Z,2.45
2023-05-09T20:12:43.079Z,2.53
2023-05-09T20:15:12.999Z,2.20
2023-05-09T20:17:41.886Z,2.42
2023-05-09T20:20:12.731Z,2.47
2023-05-09T20:22:45.471Z,2.40
2023-05-09T20:25:16.151Z,2.10
2023-05-09T20:27:44.021Z,2.30
2023-05-09T20:30:12.320Z,2.20
2023-05-09T20:32:46.048Z,2.42
2023-05-09T20:35:31.382Z,2.10
2023-05-09T20:37:59.619Z,2.22
2023-05-09T20:40:30.414Z,2.10
2023-05-09T20:43:01.211Z,1.95
2023-05-09T20:45:33.087Z,2.45
2023-05-09T20:48:09.910Z,2.10
2023-05-09T20:50:39.133Z,2.15
2023-05-09T20:53:06.402Z,2.72
2023-05-09T20:55:44.543Z,2.10
2023-05-09T20:58:15.051Z,2.35
2023-05-09T21:09:23.628Z,1.80
2023-05-09T21:11:51.814Z,2.05
2023-05-09T21:14:23.287Z,1.85
2023-05-09T21:17:01.778Z,2.13
2023-05-09T21:19:28.731Z,2.20
2023-05-09T21:21:58.349Z,2.30
2023-05-09T21:24:26.280Z,1.88
2023-05-09T21:27:22.546Z,2.03
2023-05-09T21:29:53.236Z,1.60
2023-05-09T21:32:24.000Z,1.88
2023-05-09T21:34:52.296Z,1.50
2023-05-09T21:37:26.617Z,1.38
2023-05-09T21:39:53.355Z,2.50
2023-05-09T21:42:23.231Z,1.58
2023-05-09T21:44:50.113Z,1.23
2023-05-09T21:47:18.000Z,1.40
2023-05-09T21:49:51.745Z,1.30
2023-05-09T21:52:32.868Z,1.20
2023-05-09T21:55:31.406Z,1.13
2023-05-09T21:57:59.545Z,1.10
2023-05-09T22:00:32.734Z,1.13
2023-05-09T22:03:00.337Z,0.95
2023-05-09T22:05:34.635Z,0.75
2023-05-09T22:08:11.773Z,1.10
2023-05-09T22:10:42.970Z,1.50
2023-05-09T22:13:09.976Z,1.10
2023-05-09T22:15:38.261Z,1.10
2023-05-09T22:18:56.705Z,1.00
2023-05-09T22:21:53.612Z,0.80
2023-05-09T22:24:21.583Z,0.90
2023-05-09T22:26:51.922Z,0.95
2023-05-09T22:29:21.742Z,0.80
2023-05-09T22:31:48.781Z,1.00
2023-05-09T22:34:22.102Z,0.70
2023-05-09T22:36:51.512Z,0.80
2023-05-09T22:39:22.010Z,1.17
2023-05-09T22:41:49.930Z,0.80
2023-05-09T22:44:21.162Z,0.90
2023-05-09T22:46:47.876Z,0.70
2023-05-09T22:49:20.508Z,0.65
2023-05-09T22:54:20.523Z,0.70
2023-05-09T22:56:52.176Z,0.80
2023-05-09T23:00:10.839Z,0.60
2023-05-09T23:03:04.912Z,0.90
2023-05-09T23:05:35.324Z,0.80
2023-05-09T23:08:02.156Z,0.80
2023-05-09T23:10:30.149Z,0.70
2023-05-09T23:13:25.867Z,0.80
2023-05-09T23:15:53.951Z,0.63
2023-05-09T23:18:23.807Z,0.70
2023-05-09T23:20:55.413Z,0.77
2023-05-09T23:23:51.688Z,0.90
2023-05-09T23:26:22.507Z,0.77
2023-05-09T23:28:54.785Z,0.90
2023-05-09T23:31:23.033Z,0.60
2023-05-09T23:34:18.715Z,0.50
2023-05-09T23:36:46.536Z,0.60
2023-05-09T23:39:17.211Z,0.57
2023-05-09T23:41:48.738Z,0.50
2023-05-09T23:44:17.215Z,0.70
2023-05-09T23:46:46.946Z,0.80
2023-05-09T23:49:43.776Z,0.70
2023-05-09T23:52:12.521Z,0.70
2023-05-09T23:54:40.048Z,0.60
2023-05-09T23:57:08.120Z,0.50
